createdAt,value
2022-12-08T00:01:11.718Z,9.46
2022-12-08T00:03:38.614Z,9.58
2022-12-08T00:06:06.231Z,9.58
2022-12-08T00:08:34.081Z,9.58
2022-12-08T00:11:00.684Z,9.50
2022-12-08T00:13:28.633Z,9.54
2022-12-08T00:16:00.527Z,9.54
2022-12-08T00:18:27.223Z,9.66
2022-12-08T00:20:57.217Z,9.66
2022-12-08T00:23:23.875Z,9.58
2022-12-08T00:25:50.482Z,9.59
2022-12-08T00:28:17.173Z,9.53
2022-12-08T00:30:43.903Z,9.55
2022-12-08T00:33:10.891Z,9.58
2022-12-08T00:35:42.767Z,9.61
2022-12-08T00:38:09.774Z,9.54
2022-12-08T00:40:36.411Z,9.60
2022-12-08T00:43:02.999Z,9.62
2022-12-08T00:45:29.694Z,9.60
2022-12-08T00:47:56.805Z,9.59
2022-12-08T00:50:23.444Z,9.56
2022-12-08T00:52:50.111Z,9.62
2022-12-08T00:55:16.833Z,9.64
2022-12-08T00:57:43.481Z,9.63
2022-12-08T01:00:10.511Z,9.60
2022-12-08T01:02:37.112Z,9.68
2022-12-08T01:05:03.801Z,9.59
2022-12-08T01:07:30.440Z,9.67
2022-12-08T01:09:57.156Z,9.50
2022-12-08T01:12:24.037Z,9.56
2022-12-08T01:14:50.677Z,9.58
2022-12-08T01:17:17.275Z,9.50
2022-12-08T01:19:43.939Z,9.53
2022-12-08T01:22:10.604Z,9.37
2022-12-08T01:24:38.306Z,9.38
2022-12-08T01:27:04.948Z,9.49
2022-12-08T01:29:31.600Z,9.55
2022-12-08T01:31:58.241Z,9.64
2022-12-08T01:34:24.931Z,9.48
2022-12-08T01:36:51.594Z,9.53
2022-12-08T01:39:18.877Z,9.54
2022-12-08T01:41:45.953Z,9.45
2022-12-08T01:44:12.512Z,9.47
2022-12-08T01:46:43.225Z,9.55
2022-12-08T01:49:15.684Z,9.56
2022-12-08T01:52:00.637Z,9.48
2022-12-08T01:54:29.469Z,9.41
2022-12-08T01:57:00.076Z,9.40
2022-12-08T01:59:26.780Z,9.44
2022-12-08T02:01:53.486Z,9.44
2022-12-08T02:04:20.248Z,9.51
2022-12-08T02:06:47.105Z,9.48
2022-12-08T02:09:13.713Z,9.45
2022-12-08T02:11:40.353Z,9.58
2022-12-08T02:14:07.492Z,9.50
2022-12-08T02:16:54.365Z,9.48
2022-12-08T02:19:45.122Z,9.53
2022-12-08T02:22:17.056Z,9.52
2022-12-08T02:24:47.504Z,9.50
2022-12-08T02:27:23.157Z,9.53
2022-12-08T02:30:02.147Z,9.50
2022-12-08T02:33:04.200Z,9.48
2022-12-08T02:36:08.983Z,9.45
2022-12-08T02:39:17.660Z,9.43
2022-12-08T02:42:03.049Z,9.34
2022-12-08T02:44:33.715Z,9.39
2022-12-08T02:47:14.493Z,9.39
2022-12-08T02:49:41.181Z,9.30
2022-12-08T02:52:28.803Z,9.31
2022-12-08T02:54:58.929Z,9.35
2022-12-08T02:57:48.031Z,9.35
2022-12-08T03:00:16.697Z,9.35
2022-12-08T03:02:46.991Z,9.38
2022-12-08T03:05:31.792Z,9.44
2022-12-08T03:08:30.723Z,9.36
2022-12-08T03:11:02.549Z,9.37
2022-12-08T03:13:38.568Z,9.40
2022-12-08T03:16:05.486Z,9.39
2022-12-08T03:18:32.169Z,9.27
2022-12-08T03:20:58.837Z,9.33
2022-12-08T03:23:25.550Z,9.30
2022-12-08T03:25:57.540Z,9.28
2022-12-08T03:28:24.146Z,9.20
2022-12-08T03:30:51.353Z,9.11
2022-12-08T03:33:30.313Z,9.02
2022-12-08T03:35:57.171Z,9.03
2022-12-08T03:38:23.774Z,9.05
2022-12-08T03:40:50.492Z,9.10
2022-12-08T03:43:17.144Z,9.12
2022-12-08T03:45:43.744Z,9.18
2022-12-08T03:48:10.329Z,9.21
2022-12-08T03:50:36.933Z,9.19
2022-12-08T03:53:03.544Z,9.08
2022-12-08T03:55:30.172Z,9.12
2022-12-08T03:57:56.765Z,9.07
2022-12-08T04:00:23.414Z,9.08
2022-12-08T04:02:50.298Z,9.14
2022-12-08T04:05:17.059Z,9.15
2022-12-08T04:07:43.781Z,9.13
2022-12-08T04:10:10.804Z,9.21
2022-12-08T04:12:37.405Z,9.25
2022-12-08T04:15:04.289Z,9.20
2022-12-08T04:17:30.956Z,9.26
2022-12-08T04:19:57.590Z,9.20
2022-12-08T04:22:24.235Z,9.14
2022-12-08T04:24:51.056Z,9.19
2022-12-08T04:27:17.727Z,9.19
2022-12-08T04:29:44.444Z,9.16
2022-12-08T04:32:11.041Z,9.15
2022-12-08T04:34:37.630Z,9.24
2022-12-08T04:37:04.377Z,9.16
2022-12-08T04:39:30.976Z,9.20
2022-12-08T04:41:57.722Z,9.19
2022-12-08T04:44:24.335Z,9.19
2022-12-08T04:46:51.037Z,9.22
2022-12-08T04:49:17.680Z,9.22
2022-12-08T04:51:44.334Z,9.19
2022-12-08T04:54:10.929Z,9.14
2022-12-08T04:56:37.557Z,9.17
2022-12-08T04:59:04.199Z,9.23
2022-12-08T05:01:30.835Z,9.16
2022-12-08T05:03:57.471Z,9.07
2022-12-08T05:06:24.076Z,9.05
2022-12-08T05:08:51.270Z,8.88
2022-12-08T05:11:17.882Z,9.01
2022-12-08T05:13:44.514Z,9.09
2022-12-08T05:16:12.749Z,9.14
2022-12-08T05:18:39.492Z,9.10
2022-12-08T05:21:06.638Z,9.03
2022-12-08T05:23:33.283Z,8.90
2022-12-08T05:26:00.960Z,9.04
2022-12-08T05:28:43.902Z,8.92
2022-12-08T05:31:14.923Z,8.99
2022-12-08T05:33:41.687Z,9.12
2022-12-08T05:36:08.753Z,9.08
2022-12-08T05:38:35.494Z,9.16
2022-12-08T05:41:02.099Z,9.09
2022-12-08T05:43:28.729Z,9.03
2022-12-08T05:45:55.460Z,9.12
2022-12-08T05:48:22.113Z,9.06
2022-12-08T05:50:49.112Z,9.10
2022-12-08T05:53:16.613Z,9.13
2022-12-08T05:55:43.245Z,9.09
2022-12-08T05:58:14.333Z,9.07
2022-12-08T06:00:41.506Z,9.06
2022-12-08T06:03:08.471Z,9.11
2022-12-08T06:05:35.300Z,9.12
2022-12-08T06:08:02.149Z,9.08
2022-12-08T06:10:28.888Z,9.15
2022-12-08T06:12:55.531Z,9.15
2022-12-08T06:15:22.188Z,9.13
2022-12-08T06:17:48.811Z,9.20
2022-12-08T06:20:15.644Z,9.22
2022-12-08T06:22:42.274Z,9.20
2022-12-08T06:25:10.234Z,9.16
2022-12-08T06:27:37.028Z,9.18
2022-12-08T06:30:04.255Z,9.08
2022-12-08T06:32:31.195Z,8.94
2022-12-08T06:34:57.837Z,8.95
2022-12-08T06:37:24.494Z,9.03
2022-12-08T06:39:51.096Z,9.03
2022-12-08T06:42:17.687Z,9.11
2022-12-08T06:44:44.371Z,9.05
2022-12-08T06:47:11.042Z,9.04
2022-12-08T06:49:37.677Z,9.04
2022-12-08T06:52:04.400Z,9.10
2022-12-08T06:54:31.131Z,8.98
2022-12-08T06:56:57.719Z,9.10
2022-12-08T06:59:24.322Z,9.03
2022-12-08T07:01:51.006Z,9.12
2022-12-08T07:04:17.715Z,9.09
2022-12-08T07:06:44.384Z,9.10
2022-12-08T07:09:11.030Z,9.10
2022-12-08T07:11:38.646Z,8.96
2022-12-08T07:14:05.260Z,9.13
2022-12-08T07:16:31.943Z,9.20
2022-12-08T07:18:59.743Z,9.15
2022-12-08T07:21:26.364Z,9.18
2022-12-08T07:23:57.687Z,9.12
2022-12-08T07:26:25.010Z,9.05
2022-12-08T07:28:51.602Z,9.18
2022-12-08T07:31:20.085Z,9.27
2022-12-08T07:33:46.977Z,9.20
2022-12-08T07:36:13.580Z,9.13
2022-12-08T07:38:40.226Z,9.08
2022-12-08T07:41:11.217Z,9.00
2022-12-08T07:43:37.827Z,9.07
2022-12-08T07:46:04.540Z,9.09
2022-12-08T07:48:31.224Z,8.93
2022-12-08T07:51:02.051Z,8.91
2022-12-08T07:53:28.687Z,9.10
2022-12-08T07:55:55.344Z,9.08
2022-12-08T07:58:22.004Z,9.03
2022-12-08T08:00:51.075Z,9.03
2022-12-08T08:03:17.760Z,9.19
2022-12-08T08:05:44.442Z,9.19
2022-12-08T08:08:11.326Z,9.27
2022-12-08T08:10:37.994Z,9.28
2022-12-08T08:13:04.647Z,9.23
2022-12-08T08:15:31.428Z,9.39
2022-12-08T08:17:58.219Z,9.48
2022-12-08T08:20:24.878Z,9.61
2022-12-08T08:22:51.617Z,9.52
2022-12-08T08:25:18.684Z,9.66
2022-12-08T08:27:45.357Z,9.71
2022-12-08T08:30:18.185Z,9.69
2022-12-08T08:32:46.961Z,9.69
2022-12-08T08:35:13.621Z,9.76
2022-12-08T08:37:43.159Z,9.79
2022-12-08T08:40:13.775Z,9.58
2022-12-08T08:42:40.435Z,9.79
2022-12-08T08:45:07.589Z,9.49
2022-12-08T08:47:34.199Z,9.54
2022-12-08T08:50:00.798Z,9.61
2022-12-08T08:52:27.396Z,9.35
2022-12-08T08:54:54.026Z,9.36
2022-12-08T08:57:25.348Z,9.52
2022-12-08T08:59:52.574Z,9.42
2022-12-08T09:02:19.406Z,9.59
2022-12-08T09:04:46.250Z,9.69
2022-12-08T09:07:13.043Z,9.49
2022-12-08T09:09:39.695Z,9.55
2022-12-08T09:12:06.808Z,9.42
2022-12-08T09:14:33.492Z,9.61
2022-12-08T09:17:00.212Z,9.63
2022-12-08T09:19:26.876Z,9.73
2022-12-08T09:21:53.545Z,9.67
2022-12-08T09:24:20.203Z,9.68
2022-12-08T09:26:46.881Z,9.80
2022-12-08T09:29:13.479Z,9.89
2022-12-08T09:31:40.294Z,9.96
2022-12-08T09:34:07.010Z,9.77
2022-12-08T09:36:33.603Z,9.52
2022-12-08T09:39:00.215Z,8.85
2022-12-08T09:41:37.862Z,8.86
2022-12-08T09:44:34.589Z,8.94
2022-12-08T09:47:01.656Z,9.13
2022-12-08T09:49:35.308Z,9.18
2022-12-08T09:52:01.907Z,9.22
2022-12-08T09:54:32.607Z,9.33
2022-12-08T09:57:00.564Z,9.40
2022-12-08T09:59:33.644Z,9.48
2022-12-08T10:02:04.535Z,9.45
2022-12-08T10:04:33.412Z,9.25
2022-12-08T10:07:09.965Z,9.39
2022-12-08T10:09:41.562Z,9.51
2022-12-08T10:12:26.407Z,9.37
2022-12-08T10:15:01.478Z,9.21
2022-12-08T10:17:33.528Z,9.41
2022-12-08T10:20:03.654Z,9.50
2022-12-08T10:22:37.618Z,9.69
2022-12-08T10:25:17.456Z,9.49
2022-12-08T10:27:44.157Z,9.53
2022-12-08T10:30:19.499Z,9.67
2022-12-08T10:32:48.106Z,9.83
2022-12-08T10:35:15.633Z,9.90
2022-12-08T10:37:42.365Z,9.97
2022-12-08T10:40:09.045Z,10.06
2022-12-08T10:43:02.923Z,10.10
2022-12-08T10:45:31.206Z,10.10
2022-12-08T10:48:03.791Z,10.19
2022-12-08T10:50:52.201Z,9.63
2022-12-08T10:53:29.425Z,9.49
2022-12-08T10:56:01.632Z,9.50
2022-12-08T10:58:38.912Z,9.10
2022-12-08T11:01:14.383Z,8.46
2022-12-08T11:03:48.812Z,8.53
2022-12-08T11:06:19.426Z,8.78
2022-12-08T11:08:51.242Z,9.19
2022-12-08T11:11:17.854Z,9.28
2022-12-08T11:13:44.455Z,9.38
2022-12-08T11:16:14.234Z,9.56
2022-12-08T11:18:55.428Z,9.76
2022-12-08T11:21:22.065Z,10.11
2022-12-08T11:23:49.898Z,10.31
2022-12-08T11:26:32.874Z,10.11
2022-12-08T11:28:59.472Z,10.21
2022-12-08T11:31:39.704Z,9.81
2022-12-08T11:34:06.433Z,9.51
2022-12-08T11:36:33.276Z,9.94
2022-12-08T11:39:01.053Z,9.68
2022-12-08T11:41:38.857Z,9.78
2022-12-08T11:44:23.724Z,9.77
2022-12-08T11:46:55.584Z,10.00
2022-12-08T11:49:37.688Z,10.21
2022-12-08T11:52:19.468Z,10.03
2022-12-08T11:55:02.194Z,9.73
2022-12-08T11:57:28.838Z,9.61
2022-12-08T11:59:57.117Z,9.77
2022-12-08T12:02:28.222Z,9.51
2022-12-08T12:05:07.946Z,9.78
2022-12-08T12:08:05.652Z,9.91
2022-12-08T12:11:01.858Z,10.01
2022-12-08T12:13:44.477Z,9.96
2022-12-08T12:16:49.166Z,9.94
2022-12-08T12:19:16.876Z,10.04
2022-12-08T12:21:45.263Z,9.99
2022-12-08T12:24:28.421Z,9.78
2022-12-08T12:27:05.335Z,10.09
2022-12-08T12:29:33.690Z,9.93
2022-12-08T12:32:02.691Z,9.96
2022-12-08T12:34:31.350Z,10.18
2022-12-08T12:37:05.447Z,10.34
2022-12-08T12:39:34.061Z,10.29
2022-12-08T12:42:01.824Z,10.39
2022-12-08T12:44:28.345Z,10.54
2022-12-08T12:47:01.554Z,10.59
2022-12-08T12:49:40.230Z,10.51
2022-12-08T12:52:15.509Z,10.52
2022-12-08T12:54:45.679Z,10.33
2022-12-08T12:57:12.192Z,10.55
2022-12-08T12:59:47.903Z,10.45
2022-12-08T13:02:27.542Z,10.51
2022-12-08T13:05:13.237Z,10.03
2022-12-08T13:07:51.169Z,10.05
2022-12-08T13:10:33.334Z,10.15
2022-12-08T13:13:05.960Z,10.20
2022-12-08T13:15:36.594Z,10.25
2022-12-08T13:18:03.217Z,10.31
2022-12-08T13:20:29.815Z,10.38
2022-12-08T13:23:11.552Z,10.44
2022-12-08T13:25:44.281Z,10.47
2022-12-08T13:28:28.059Z,10.28
2022-12-08T13:30:57.636Z,10.20
2022-12-08T13:33:29.560Z,10.10
2022-12-08T13:36:20.847Z,10.04
2022-12-08T13:38:47.466Z,9.81
2022-12-08T13:41:17.668Z,9.78
2022-12-08T13:44:50.367Z,9.94
2022-12-08T13:47:09.791Z,9.84
2022-12-08T13:58:35.051Z,9.90
2022-12-08T14:01:13.481Z,9.85
2022-12-08T14:04:30.871Z,9.72
2022-12-08T14:06:43.956Z,9.65
2022-12-08T14:09:12.821Z,9.69
2022-12-08T14:11:47.242Z,9.77
2022-12-08T14:14:32.630Z,9.73
2022-12-08T14:17:09.711Z,9.75
2022-12-08T14:19:36.325Z,9.68
2022-12-08T14:22:12.563Z,9.71
2022-12-08T14:24:39.239Z,9.78
2022-12-08T14:27:09.293Z,9.84
2022-12-08T14:29:46.594Z,9.84
2022-12-08T14:32:29.981Z,9.87
2022-12-08T14:35:01.440Z,9.96
2022-12-08T14:37:32.262Z,9.99
2022-12-08T14:40:06.687Z,9.96
2022-12-08T14:42:42.902Z,10.00
2022-12-08T14:45:11.092Z,10.03
2022-12-08T14:47:37.704Z,10.11
2022-12-08T14:50:05.224Z,10.08
2022-12-08T14:52:32.103Z,9.94
2022-12-08T14:54:58.758Z,9.96
2022-12-08T14:57:29.712Z,9.94
2022-12-08T14:59:56.360Z,9.86
2022-12-08T15:02:25.379Z,9.83
2022-12-08T15:05:02.105Z,9.74
2022-12-08T15:07:30.316Z,9.71
2022-12-08T15:10:26.917Z,9.69
2022-12-08T15:13:05.534Z,9.69
2022-12-08T15:15:33.093Z,9.61
2022-12-08T15:18:17.174Z,9.54
2022-12-08T15:20:45.896Z,9.59
2022-12-08T15:23:29.074Z,9.53
2022-12-08T15:25:55.780Z,9.46
2022-12-08T15:28:29.398Z,9.45
2022-12-08T15:30:57.011Z,9.41
2022-12-08T15:33:23.671Z,9.29
2022-12-08T15:35:51.140Z,9.20
2022-12-08T15:38:19.047Z,9.14
2022-12-08T15:40:45.670Z,9.00
2022-12-08T15:43:12.326Z,9.06
2022-12-08T15:45:44.757Z,9.11
2022-12-08T15:48:19.397Z,9.08
2022-12-08T15:50:46.477Z,9.08
2022-12-08T15:53:13.313Z,9.05
2022-12-08T15:55:43.144Z,9.00
2022-12-08T16:01:08.393Z,9.00
2022-12-08T16:07:12.903Z,8.93
2022-12-08T16:09:37.710Z,8.91
2022-12-08T16:12:08.442Z,8.91
2022-12-08T16:17:22.596Z,8.93
2022-12-08T16:19:49.235Z,8.97
2022-12-08T16:25:19.485Z,8.98
2022-12-08T16:30:34.295Z,8.82
2022-12-08T16:33:00.894Z,8.90
2022-12-08T16:35:27.532Z,8.94
2022-12-08T16:37:54.137Z,8.91
2022-12-08T16:40:20.847Z,8.82
2022-12-08T16:42:47.533Z,8.71
2022-12-08T16:45:21.941Z,8.80
2022-12-08T16:48:01.086Z,8.80
2022-12-08T16:50:32.425Z,8.75
2022-12-08T16:53:00.743Z,8.78
2022-12-08T16:55:27.425Z,8.72
2022-12-08T16:57:54.083Z,8.71
2022-12-08T17:00:22.229Z,8.75
2022-12-08T17:02:48.909Z,8.79
2022-12-08T17:05:17.256Z,8.77
2022-12-08T17:07:44.558Z,8.79
2022-12-08T17:10:14.706Z,8.81
2022-12-08T17:12:41.512Z,8.70
2022-12-08T17:15:10.199Z,8.70
2022-12-08T17:17:37.218Z,8.77
2022-12-08T17:20:06.642Z,8.76
2022-12-08T17:22:33.484Z,8.82
2022-12-08T17:25:00.902Z,8.82
2022-12-08T17:27:27.580Z,8.81
2022-12-08T17:29:54.263Z,8.79
2022-12-08T17:32:21.014Z,8.78
2022-12-08T17:34:47.735Z,8.83
2022-12-08T17:37:14.479Z,8.93
2022-12-08T17:39:41.110Z,8.97
2022-12-08T17:42:07.769Z,9.03
2022-12-08T17:44:34.548Z,9.15
2022-12-08T17:47:01.537Z,9.20
2022-12-08T17:49:28.617Z,9.29
2022-12-08T17:51:56.260Z,9.31
2022-12-08T17:54:22.866Z,9.49
2022-12-08T17:56:49.493Z,9.57
2022-12-08T17:59:16.088Z,9.57
2022-12-08T18:01:42.831Z,9.60
2022-12-08T18:04:09.704Z,9.59
2022-12-08T18:06:36.885Z,9.58
2022-12-08T18:09:03.615Z,9.56
2022-12-08T18:11:30.796Z,9.64
2022-12-08T18:13:57.474Z,9.62
2022-12-08T18:16:25.264Z,9.66
2022-12-08T18:18:51.986Z,9.48
2022-12-08T18:21:23.310Z,9.56
2022-12-08T18:23:50.547Z,9.55
2022-12-08T18:26:17.139Z,9.52
2022-12-08T18:28:43.741Z,9.49
2022-12-08T18:31:11.776Z,9.57
2022-12-08T18:33:39.684Z,9.56
2022-12-08T18:36:10.582Z,9.58
2022-12-08T18:38:37.452Z,9.57
2022-12-08T18:41:30.213Z,9.57
2022-12-08T18:43:57.052Z,9.60
2022-12-08T18:46:24.036Z,9.58
2022-12-08T18:48:50.951Z,9.56
2022-12-08T18:51:22.003Z,9.63
2022-12-08T18:53:48.801Z,9.65
2022-12-08T18:56:31.145Z,9.64
2022-12-08T18:59:03.230Z,9.66
2022-12-08T19:01:34.087Z,9.67
2022-12-08T19:06:48.350Z,9.68
2022-12-08T19:09:14.961Z,9.73
2022-12-08T19:11:41.619Z,9.67
2022-12-08T19:14:08.444Z,9.59
2022-12-08T19:16:35.290Z,9.58
2022-12-08T19:19:02.042Z,9.63
2022-12-08T19:21:28.694Z,9.67
2022-12-08T19:23:55.331Z,9.71
2022-12-08T19:26:22.048Z,9.60
2022-12-08T19:28:48.684Z,9.67
2022-12-08T19:31:15.418Z,9.75
2022-12-08T19:33:42.068Z,9.73
2022-12-08T19:36:10.116Z,9.75
2022-12-08T19:38:37.018Z,9.68
2022-12-08T19:41:03.681Z,9.65
2022-12-08T19:43:30.337Z,9.69
2022-12-08T19:45:57.075Z,9.68
2022-12-08T19:48:23.872Z,9.69
2022-12-08T19:50:50.620Z,9.65
2022-12-08T19:53:17.296Z,9.63
2022-12-08T19:55:44.019Z,9.66
2022-12-08T19:58:10.665Z,9.65
2022-12-08T20:00:37.956Z,9.65
2022-12-08T20:03:04.760Z,9.65
2022-12-08T20:05:31.541Z,9.68
2022-12-08T20:07:58.221Z,9.67
2022-12-08T20:10:26.986Z,9.61
2022-12-08T20:12:54.618Z,9.53
2022-12-08T20:15:21.332Z,9.49
2022-12-08T20:17:47.973Z,9.64
2022-12-08T20:20:15.124Z,9.59
2022-12-08T20:22:42.278Z,9.66
2022-12-08T20:25:12.815Z,9.63
2022-12-08T20:27:40.131Z,9.65
2022-12-08T20:30:11.851Z,9.63
2022-12-08T20:32:41.838Z,9.65
2022-12-08T20:35:09.051Z,9.59
2022-12-08T20:37:35.934Z,9.66
2022-12-08T20:40:02.585Z,9.67
2022-12-08T20:42:29.298Z,9.66
2022-12-08T20:44:55.905Z,9.78
2022-12-08T20:47:22.581Z,9.78
2022-12-08T20:49:49.388Z,9.77
2022-12-08T20:52:16.037Z,9.80
2022-12-08T20:54:42.793Z,9.80
2022-12-08T20:57:09.427Z,9.80
2022-12-08T20:59:36.021Z,9.82
2022-12-08T21:02:02.738Z,9.84
2022-12-08T21:04:29.831Z,9.85
2022-12-08T21:06:56.670Z,9.90
2022-12-08T21:09:23.654Z,9.84
2022-12-08T21:11:50.466Z,9.89
2022-12-08T21:14:17.124Z,9.88
2022-12-08T21:16:43.775Z,9.93
2022-12-08T21:19:10.565Z,9.96
2022-12-08T21:21:37.386Z,9.94
2022-12-08T21:24:04.562Z,9.97
2022-12-08T21:26:31.281Z,9.87
2022-12-08T21:28:57.969Z,9.90
2022-12-08T21:31:25.718Z,9.81
2022-12-08T21:33:52.662Z,9.94
2022-12-08T21:36:20.148Z,9.92
2022-12-08T21:38:46.936Z,9.96
2022-12-08T21:41:15.502Z,9.92
2022-12-08T21:43:42.449Z,9.88
2022-12-08T21:46:16.200Z,9.91
2022-12-08T21:48:43.536Z,9.91
2022-12-08T21:51:10.629Z,9.96
2022-12-08T21:53:37.395Z,9.91
2022-12-08T21:56:08.477Z,9.96
2022-12-08T21:58:35.680Z,9.79
2022-12-08T22:01:09.085Z,9.69
2022-12-08T22:03:36.551Z,9.81
2022-12-08T22:06:07.078Z,9.83
2022-12-08T22:08:33.971Z,9.93
2022-12-08T22:11:00.825Z,9.93
2022-12-08T22:13:27.703Z,9.88
2022-12-08T22:15:58.274Z,9.82
2022-12-08T22:18:25.066Z,9.80
2022-12-08T22:20:52.011Z,9.85
2022-12-08T22:23:19.087Z,9.78
2022-12-08T22:25:45.929Z,9.62
2022-12-08T22:28:12.624Z,9.51
2022-12-08T22:30:39.766Z,9.43
2022-12-08T22:33:06.841Z,9.41
2022-12-08T22:35:33.471Z,9.27
2022-12-08T22:38:00.104Z,9.06
2022-12-08T22:40:27.001Z,9.03
2022-12-08T22:42:53.783Z,9.11
2022-12-08T22:45:20.708Z,9.13
2022-12-08T22:47:50.235Z,8.89
2022-12-08T22:50:17.276Z,8.88
2022-12-08T22:52:44.091Z,8.93
2022-12-08T22:55:10.923Z,8.99
2022-12-08T22:57:37.810Z,8.76
2022-12-08T23:00:05.956Z,8.52
2022-12-08T23:02:33.096Z,8.49
2022-12-08T23:04:59.833Z,8.60
2022-12-08T23:07:26.805Z,8.52
2022-12-08T23:09:53.627Z,8.52
2022-12-08T23:12:20.479Z,8.51
2022-12-08T23:14:47.105Z,8.64
2022-12-08T23:17:13.854Z,8.67
2022-12-08T23:19:40.716Z,8.51
2022-12-08T23:22:07.503Z,8.50
2022-12-08T23:24:34.125Z,8.43
2022-12-08T23:27:00.792Z,8.71
2022-12-08T23:29:27.473Z,8.53
2022-12-08T23:31:54.167Z,8.57
2022-12-08T23:34:20.945Z,8.43
2022-12-08T23:36:47.647Z,8.47
2022-12-08T23:39:14.315Z,8.59
2022-12-08T23:41:40.964Z,8.62
2022-12-08T23:44:07.638Z,8.58
2022-12-08T23:46:34.549Z,8.59
2022-12-08T23:49:01.456Z,8.65
2022-12-08T23:51:28.102Z,8.52
2022-12-08T23:53:54.768Z,8.62
2022-12-08T23:56:24.376Z,8.69
2022-12-08T23:58:53.926Z,8.50
